createdAt,value
2022-08-31T00:10:57.333Z,99.90
2022-08-31T00:13:27.907Z,99.90
2022-08-31T00:15:58.672Z,99.90
2022-08-31T00:18:26.997Z,99.90
2022-08-31T00:20:58.937Z,99.90
2022-08-31T00:23:28.497Z,99.90
2022-08-31T00:25:57.888Z,99.90
2022-08-31T00:28:26.751Z,99.90
2022-08-31T00:30:56.804Z,99.90
2022-08-31T00:33:25.359Z,99.90
2022-08-31T00:35:58.301Z,99.90
2022-08-31T00:38:26.689Z,99.90
2022-08-31T00:40:55.036Z,99.90
2022-08-31T00:43:46.114Z,99.90
2022-08-31T00:46:45.663Z,99.90
2022-08-31T00:49:17.537Z,99.90
2022-08-31T00:52:18.283Z,99.90
2022-08-31T00:54:48.774Z,99.90
2022-08-31T00:57:50.730Z,99.90
2022-08-31T01:00:24.236Z,99.90
2022-08-31T01:02:53.605Z,99.90
2022-08-31T01:05:31.925Z,99.90
2022-08-31T01:08:01.367Z,99.90
2022-08-31T01:10:39.412Z,99.90
2022-08-31T01:13:14.369Z,99.90
2022-08-31T01:15:51.344Z,99.90
2022-08-31T01:18:26.871Z,99.90
2022-08-31T01:20:54.982Z,99.90
2022-08-31T01:23:40.247Z,99.90
2022-08-31T01:26:10.780Z,99.90
2022-08-31T01:28:39.272Z,99.90
2022-08-31T01:37:01.599Z,99.90
2022-08-31T01:39:30.188Z,99.90
2022-08-31T01:42:00.994Z,99.90
2022-08-31T01:58:05.182Z,99.90
2022-08-31T02:22:05.404Z,99.90
2022-08-31T02:29:57.029Z,99.90
2022-08-31T02:32:26.210Z,99.90
2022-08-31T02:34:58.753Z,99.90
2022-08-31T02:37:28.086Z,99.90
2022-08-31T02:39:57.698Z,99.90
2022-08-31T02:47:36.027Z,99.90
2022-08-31T02:50:24.604Z,99.90
2022-08-31T02:52:55.744Z,99.90
2022-08-31T02:55:28.920Z,99.90
2022-08-31T02:58:29.380Z,99.90
2022-08-31T03:01:30.856Z,99.90
2022-08-31T03:04:03.476Z,99.90
2022-08-31T03:06:32.340Z,99.90
2022-08-31T03:09:03.742Z,99.90
2022-08-31T03:11:36.528Z,99.90
2022-08-31T03:14:57.244Z,99.90
2022-08-31T03:17:25.691Z,99.90
2022-08-31T03:25:18.280Z,99.90
2022-08-31T03:27:47.073Z,99.90
2022-08-31T03:30:49.344Z,99.90
2022-08-31T03:33:18.591Z,99.90
2022-08-31T03:35:47.160Z,99.90
2022-08-31T03:38:17.148Z,99.90
2022-08-31T03:40:52.496Z,99.90
2022-08-31T03:43:28.944Z,99.90
2022-08-31T03:45:59.809Z,99.90
2022-08-31T03:48:28.470Z,99.90
2022-08-31T03:50:57.071Z,99.90
2022-08-31T03:58:22.634Z,99.90
2022-08-31T04:00:55.098Z,99.90
2022-08-31T04:03:45.469Z,99.90
2022-08-31T04:06:34.488Z,99.90
2022-08-31T04:09:21.586Z,99.90
2022-08-31T04:12:10.519Z,99.90
2022-08-31T04:15:08.754Z,99.90
2022-08-31T04:18:03.222Z,99.90
2022-08-31T04:20:59.848Z,99.90
2022-08-31T04:23:32.494Z,99.90
2022-08-31T04:26:04.597Z,99.90
2022-08-31T04:28:35.033Z,99.90
2022-08-31T04:31:18.551Z,99.90
2022-08-31T04:33:56.935Z,99.90
2022-08-31T04:36:32.449Z,99.90
2022-08-31T04:39:17.745Z,99.90
2022-08-31T04:41:50.338Z,99.90
2022-08-31T04:44:26.992Z,99.90
2022-08-31T04:56:21.529Z,99.90
2022-08-31T04:58:57.358Z,99.90
2022-08-31T05:01:35.903Z,99.90
2022-08-31T05:04:39.228Z,99.90
2022-08-31T05:07:07.727Z,99.90
2022-08-31T05:09:38.498Z,99.90
2022-08-31T05:12:08.305Z,99.90
2022-08-31T05:14:38.344Z,99.90
2022-08-31T05:17:23.365Z,99.90
2022-08-31T05:19:53.358Z,99.90
2022-08-31T05:23:28.590Z,99.90
2022-08-31T05:26:00.879Z,99.90
2022-08-31T05:34:02.306Z,99.90
2022-08-31T05:36:39.358Z,99.90
2022-08-31T05:39:13.184Z,99.90
2022-08-31T05:41:49.856Z,99.90
2022-08-31T05:44:32.592Z,99.90
2022-08-31T05:56:46.392Z,99.90
2022-08-31T05:59:21.906Z,99.90
2022-08-31T06:01:52.475Z,99.90
2022-08-31T06:04:35.393Z,99.90
2022-08-31T06:07:46.381Z,99.90
2022-08-31T06:10:50.549Z,99.90
2022-08-31T06:18:51.216Z,99.90
2022-08-31T06:21:25.574Z,99.90
2022-08-31T06:23:59.989Z,99.90
2022-08-31T06:26:38.033Z,99.90
2022-08-31T06:29:15.007Z,99.90
2022-08-31T06:31:49.146Z,99.90
2022-08-31T06:43:06.089Z,99.90
2022-08-31T06:50:57.629Z,99.90
2022-08-31T06:53:30.197Z,99.90
2022-08-31T06:56:59.870Z,99.90
2022-08-31T07:00:55.945Z,99.90
2022-08-31T07:03:37.738Z,99.90
2022-08-31T07:06:14.329Z,99.90
2022-08-31T07:09:49.169Z,99.90
2022-08-31T07:12:18.769Z,99.90
2022-08-31T07:14:57.586Z,99.90
2022-08-31T07:19:15.882Z,99.90
2022-08-31T07:21:53.534Z,99.90
2022-08-31T07:30:10.157Z,99.90
2022-08-31T07:32:47.812Z,99.90
2022-08-31T07:35:18.952Z,99.90
2022-08-31T07:38:51.482Z,99.90
2022-08-31T07:41:53.287Z,99.90
2022-08-31T07:44:26.013Z,99.90
2022-08-31T07:46:57.588Z,99.90
2022-08-31T07:49:29.301Z,99.90
2022-08-31T07:52:11.993Z,99.90
2022-08-31T07:55:10.244Z,99.90
2022-08-31T07:58:04.160Z,99.90
2022-08-31T08:00:35.711Z,99.90
2022-08-31T08:03:08.133Z,99.90
2022-08-31T08:06:03.003Z,99.90
2022-08-31T08:09:24.871Z,99.90
2022-08-31T08:16:54.672Z,99.90
2022-08-31T08:19:54.058Z,99.90
2022-08-31T08:22:56.913Z,99.90
2022-08-31T08:30:53.141Z,99.90
2022-08-31T08:33:26.265Z,99.90
2022-08-31T08:41:23.600Z,99.90
2022-08-31T08:44:06.086Z,99.90
2022-08-31T08:47:37.691Z,99.90
2022-08-31T08:50:11.364Z,99.90
2022-08-31T08:52:51.443Z,99.90
2022-08-31T08:55:30.892Z,99.90
2022-08-31T08:58:00.691Z,99.90
2022-08-31T09:06:06.247Z,99.90
2022-08-31T09:09:04.515Z,99.90
2022-08-31T09:11:55.643Z,99.90
2022-08-31T09:20:10.663Z,99.90
2022-08-31T09:23:21.627Z,99.90
2022-08-31T09:26:27.989Z,99.90
2022-08-31T09:29:04.541Z,99.90
2022-08-31T09:31:37.943Z,99.90
2022-08-31T09:44:59.210Z,99.90
2022-08-31T09:48:32.933Z,99.90
2022-08-31T09:51:03.028Z,99.90
2022-08-31T09:54:00.502Z,99.90
2022-08-31T09:56:30.051Z,99.90
2022-08-31T09:59:03.124Z,99.90
2022-08-31T10:01:45.625Z,99.90
2022-08-31T10:04:28.279Z,99.90
2022-08-31T10:07:25.136Z,99.90
2022-08-31T10:10:03.236Z,99.80
2022-08-31T10:12:55.495Z,99.90
2022-08-31T10:15:43.219Z,99.90
2022-08-31T10:18:51.232Z,99.90
2022-08-31T10:21:30.799Z,99.90
2022-08-31T10:24:21.012Z,99.90
2022-08-31T10:26:57.396Z,99.90
2022-08-31T10:29:49.189Z,99.90
2022-08-31T10:32:32.145Z,99.90
2022-08-31T10:40:50.628Z,99.90
2022-08-31T10:43:32.145Z,99.90
2022-08-31T10:46:05.728Z,99.90
2022-08-31T10:48:37.424Z,99.90
2022-08-31T10:52:45.707Z,99.90
2022-08-31T10:55:39.496Z,99.90
2022-08-31T10:58:45.132Z,99.90
2022-08-31T11:01:29.200Z,99.90
2022-08-31T11:04:42.263Z,99.90
2022-08-31T11:07:49.387Z,99.90
2022-08-31T11:10:26.442Z,99.90
2022-08-31T11:13:06.109Z,99.90
2022-08-31T11:15:45.586Z,99.90
2022-08-31T11:18:36.433Z,99.90
2022-08-31T11:21:35.612Z,99.90
2022-08-31T11:24:56.254Z,99.90
2022-08-31T11:27:37.665Z,99.90
2022-08-31T11:36:07.771Z,99.90
2022-08-31T11:39:16.490Z,99.90
2022-08-31T11:41:48.889Z,99.90
2022-08-31T11:44:34.330Z,99.90
2022-08-31T11:47:09.429Z,99.90
2022-08-31T11:49:54.391Z,99.90
2022-08-31T11:52:53.946Z,99.90
2022-08-31T11:55:47.424Z,99.90
2022-08-31T11:58:26.173Z,99.90
2022-08-31T12:01:00.022Z,99.90
2022-08-31T12:03:53.106Z,99.90
2022-08-31T12:06:49.764Z,99.90
2022-08-31T12:09:59.887Z,99.90
2022-08-31T12:13:07.817Z,99.90
2022-08-31T12:16:40.768Z,99.90
2022-08-31T12:19:56.714Z,99.90
2022-08-31T12:23:30.954Z,99.90
2022-08-31T12:26:41.788Z,99.90
2022-08-31T12:29:46.640Z,99.40
2022-08-31T12:32:20.658Z,99.80
2022-08-31T12:35:01.593Z,99.90
2022-08-31T12:37:35.685Z,97.30
2022-08-31T12:40:16.054Z,97.10
2022-08-31T12:43:02.955Z,97.00
2022-08-31T12:46:18.778Z,94.40
2022-08-31T12:48:59.265Z,97.10
2022-08-31T12:51:33.931Z,94.50
2022-08-31T12:54:17.844Z,93.90
2022-08-31T12:57:08.625Z,93.80
2022-08-31T13:00:45.044Z,96.00
2022-08-31T13:03:32.220Z,95.40
2022-08-31T13:06:14.379Z,92.00
2022-08-31T13:08:47.423Z,94.30
2022-08-31T13:11:40.696Z,93.70
2022-08-31T13:14:24.759Z,91.00
2022-08-31T13:17:12.173Z,92.00
2022-08-31T13:20:01.741Z,91.10
2022-08-31T13:22:45.223Z,90.60
2022-08-31T13:25:38.604Z,91.60
2022-08-31T13:28:16.759Z,91.20
2022-08-31T13:31:03.329Z,90.90
2022-08-31T13:33:35.119Z,87.10
2022-08-31T13:36:40.573Z,85.30
2022-08-31T13:39:14.569Z,91.90
2022-08-31T13:41:56.158Z,86.90
2022-08-31T13:44:28.038Z,84.90
2022-08-31T13:47:03.028Z,87.00
2022-08-31T13:49:40.800Z,86.60
2022-08-31T13:52:21.473Z,87.20
2022-08-31T13:55:05.827Z,90.40
2022-08-31T13:57:36.037Z,86.60
2022-08-31T14:00:32.748Z,89.80
2022-08-31T14:03:33.597Z,84.20
2022-08-31T14:06:23.928Z,87.80
2022-08-31T14:09:24.927Z,86.60
2022-08-31T14:12:04.054Z,89.00
2022-08-31T14:14:43.357Z,88.70
2022-08-31T14:17:15.678Z,87.20
2022-08-31T14:19:45.269Z,85.60
2022-08-31T14:22:30.139Z,84.10
2022-08-31T14:25:00.866Z,81.20
2022-08-31T14:27:39.561Z,80.60
2022-08-31T14:30:09.550Z,80.60
2022-08-31T14:32:37.562Z,78.90
2022-08-31T14:35:11.992Z,79.30
2022-08-31T14:37:50.570Z,76.60
2022-08-31T14:40:19.423Z,80.60
2022-08-31T14:42:52.768Z,81.40
2022-08-31T14:45:20.834Z,79.90
2022-08-31T14:47:52.627Z,78.80
2022-08-31T14:50:28.005Z,76.10
2022-08-31T14:52:57.760Z,78.40
2022-08-31T14:55:30.086Z,79.90
2022-08-31T14:58:30.461Z,81.30
2022-08-31T15:01:02.689Z,75.40
2022-08-31T15:03:34.426Z,81.10
2022-08-31T15:06:04.449Z,76.30
2022-08-31T15:08:38.638Z,80.20
2022-08-31T15:11:10.637Z,73.10
2022-08-31T15:13:40.013Z,74.40
2022-08-31T15:16:12.114Z,74.90
2022-08-31T15:18:43.967Z,75.00
2022-08-31T15:21:13.297Z,80.30
2022-08-31T15:23:41.987Z,78.80
2022-08-31T15:26:12.564Z,79.90
2022-08-31T15:28:42.827Z,80.00
2022-08-31T15:31:21.469Z,77.70
2022-08-31T15:34:00.289Z,80.10
2022-08-31T15:36:29.038Z,80.20
2022-08-31T15:39:04.267Z,80.00
2022-08-31T15:41:37.400Z,76.10
2022-08-31T15:44:10.384Z,79.00
2022-08-31T15:47:30.469Z,78.00
2022-08-31T15:50:00.192Z,79.20
2022-08-31T15:52:31.525Z,74.00
2022-08-31T15:55:00.210Z,74.90
2022-08-31T15:58:04.270Z,78.10
2022-08-31T16:00:34.323Z,78.80
2022-08-31T16:04:40.929Z,76.40
2022-08-31T16:07:11.669Z,74.90
2022-08-31T16:09:44.706Z,73.10
2022-08-31T16:12:14.560Z,74.40
2022-08-31T16:15:15.844Z,75.00
2022-08-31T16:17:44.188Z,70.30
2022-08-31T16:20:14.363Z,76.80
2022-08-31T16:22:43.497Z,75.20
2022-08-31T16:25:14.396Z,75.30
2022-08-31T16:27:43.466Z,74.40
2022-08-31T16:30:13.622Z,76.50
2022-08-31T16:32:41.669Z,76.70
2022-08-31T16:35:10.227Z,74.60
2022-08-31T16:37:38.492Z,78.60
2022-08-31T16:40:19.014Z,78.90
2022-08-31T16:42:54.502Z,79.00
2022-08-31T16:45:26.189Z,80.50
2022-08-31T16:48:14.136Z,81.70
2022-08-31T16:50:50.660Z,78.40
2022-08-31T16:53:19.883Z,79.70
2022-08-31T16:55:48.868Z,80.10
2022-08-31T16:58:50.100Z,79.70
2022-08-31T17:01:26.552Z,83.00
2022-08-31T17:03:57.726Z,82.10
2022-08-31T17:06:29.401Z,81.00
2022-08-31T17:09:04.501Z,81.60
2022-08-31T17:11:48.199Z,81.70
2022-08-31T17:14:21.023Z,83.20
2022-08-31T17:16:53.109Z,82.80
2022-08-31T17:19:22.268Z,83.30
2022-08-31T17:21:51.074Z,83.10
2022-08-31T17:24:24.900Z,85.80
2022-08-31T17:26:59.656Z,85.40
2022-08-31T17:29:43.743Z,87.60
2022-08-31T17:32:26.205Z,86.10
2022-08-31T17:34:55.430Z,87.00
2022-08-31T17:37:32.879Z,89.10
2022-08-31T17:40:01.006Z,88.90
2022-08-31T17:42:30.735Z,89.80
2022-08-31T17:44:58.950Z,90.20
2022-08-31T17:47:27.039Z,91.00
2022-08-31T17:50:02.320Z,91.30
2022-08-31T17:52:35.301Z,92.00
2022-08-31T17:55:11.345Z,91.50
2022-08-31T17:57:44.534Z,92.30
2022-08-31T18:00:50.226Z,91.60
2022-08-31T18:03:18.214Z,92.50
2022-08-31T18:05:46.810Z,93.10
2022-08-31T18:08:15.740Z,93.70
2022-08-31T18:10:52.460Z,93.70
2022-08-31T18:13:24.301Z,93.30
2022-08-31T18:15:52.645Z,93.20
2022-08-31T18:18:21.113Z,92.90
2022-08-31T18:20:49.766Z,93.70
2022-08-31T18:23:17.827Z,92.80
2022-08-31T18:25:52.422Z,93.20
2022-08-31T18:28:25.806Z,93.90
2022-08-31T18:30:53.913Z,93.60
2022-08-31T18:36:55.403Z,95.50
2022-08-31T18:39:51.549Z,95.90
2022-08-31T18:42:40.192Z,96.30
2022-08-31T18:45:19.419Z,97.40
2022-08-31T18:48:23.757Z,96.90
2022-08-31T18:50:47.614Z,98.60
2022-08-31T18:53:28.836Z,98.00
2022-08-31T18:56:06.142Z,97.60
2022-08-31T18:58:35.881Z,98.40
2022-08-31T19:01:15.840Z,99.10
2022-08-31T19:03:45.813Z,99.90
2022-08-31T19:06:21.719Z,99.20
2022-08-31T19:08:52.657Z,99.40
2022-08-31T19:11:23.581Z,99.90
2022-08-31T19:13:52.813Z,99.90
2022-08-31T19:16:25.418Z,99.90
2022-08-31T19:18:59.154Z,99.90
2022-08-31T19:21:34.206Z,99.90
2022-08-31T19:24:10.701Z,99.90
2022-08-31T19:26:52.004Z,99.90
2022-08-31T19:29:24.501Z,99.90
2022-08-31T19:31:55.066Z,99.90
2022-08-31T19:34:35.227Z,99.90
2022-08-31T19:37:10.651Z,99.90
2022-08-31T19:39:44.454Z,99.90
2022-08-31T19:45:49.827Z,99.90
2022-08-31T19:48:32.340Z,99.90
2022-08-31T19:51:08.571Z,99.90
2022-08-31T19:53:40.429Z,99.90
2022-08-31T19:56:24.163Z,99.90
2022-08-31T19:58:55.577Z,99.90
2022-08-31T20:01:34.742Z,99.90
2022-08-31T20:04:40.409Z,99.90
2022-08-31T20:07:09.540Z,99.90
2022-08-31T20:09:38.606Z,99.90
2022-08-31T20:12:10.787Z,99.90
2022-08-31T20:14:39.971Z,99.90
2022-08-31T20:17:41.700Z,99.90
2022-08-31T20:20:12.965Z,99.90
2022-08-31T20:22:48.525Z,99.90
2022-08-31T20:25:19.120Z,99.90
2022-08-31T20:27:50.456Z,99.90
2022-08-31T20:30:23.696Z,99.90
2022-08-31T20:32:53.578Z,99.90
2022-08-31T20:35:33.401Z,99.90
2022-08-31T20:38:06.499Z,99.90
2022-08-31T20:40:39.317Z,99.90
2022-08-31T20:43:13.957Z,99.90
2022-08-31T20:45:44.203Z,99.90
2022-08-31T20:49:23.532Z,99.90
2022-08-31T20:51:55.454Z,99.90
2022-08-31T20:54:26.382Z,99.90
2022-08-31T21:02:21.923Z,99.90
2022-08-31T21:04:51.052Z,99.90
2022-08-31T21:07:25.867Z,99.90
2022-08-31T21:10:36.242Z,99.90
2022-08-31T21:13:11.387Z,99.90
2022-08-31T21:15:45.500Z,99.90
2022-08-31T21:18:23.524Z,99.90
2022-08-31T21:20:52.985Z,99.90
2022-08-31T21:23:21.726Z,99.90
2022-08-31T21:25:57.895Z,99.90
2022-08-31T21:28:31.341Z,99.90
2022-08-31T21:31:18.370Z,99.90
2022-08-31T21:34:25.980Z,99.90
2022-08-31T21:36:55.478Z,99.90
2022-08-31T21:39:29.162Z,99.90
2022-08-31T21:42:02.081Z,99.90
2022-08-31T21:44:31.182Z,99.90
2022-08-31T21:46:59.979Z,99.90
2022-08-31T21:50:01.137Z,99.90
2022-08-31T21:52:30.402Z,99.90
2022-08-31T21:55:05.651Z,99.90
2022-08-31T21:57:36.090Z,99.90
2022-08-31T22:00:26.700Z,99.90
2022-08-31T22:03:17.142Z,99.90
2022-08-31T22:05:45.727Z,99.90
2022-08-31T22:08:18.171Z,99.90
2022-08-31T22:10:49.170Z,99.90
2022-08-31T22:14:03.814Z,99.90
2022-08-31T22:16:37.695Z,99.90
2022-08-31T22:19:29.555Z,99.90
2022-08-31T22:22:01.408Z,99.90
2022-08-31T22:25:03.407Z,99.90
2022-08-31T22:28:06.794Z,99.90
2022-08-31T22:35:42.504Z,99.90
2022-08-31T22:46:59.716Z,99.90
2022-08-31T22:49:29.539Z,99.90
2022-08-31T22:52:00.125Z,99.90
2022-08-31T22:54:36.520Z,99.90
2022-08-31T23:09:28.020Z,99.90
2022-08-31T23:12:06.203Z,99.90
2022-08-31T23:14:38.946Z,99.90
2022-08-31T23:17:11.245Z,99.90
2022-08-31T23:24:59.976Z,99.90
2022-08-31T23:27:33.357Z,99.90
2022-08-31T23:30:10.009Z,99.90
2022-08-31T23:38:02.255Z,99.90
2022-08-31T23:45:48.617Z,99.90
2022-08-31T23:48:23.471Z,99.90
2022-08-31T23:50:52.415Z,99.90
2022-08-31T23:53:23.144Z,99.90
2022-08-31T23:56:16.121Z,99.90
2022-08-31T23:58:48.726Z,99.90
